Carlton, Alabama
Current Conditions -  °F | °C
As of 1:53 AM on Wednesday 26 Nov 2014 (Local Time) from KGZH Reporting Station
Clear Clear  
Wind Chill: 44°   Ceiling: Unl
Heat Index: 47°   Visibility: 10mi
Dew Point: 31°   Wind: 7mph
Humidity: 54%   Direction: NA
Pressure: 30.12"   Gusts: NA
Location:  31.34°N, 87.85°W
Report Text: KGZH 260753Z AUTO VRB06KT 10SM CLR 08/M01 A3012 RMK AO2 SLP197 T00831006
Loading
Personal Weather Stations






























Interactive Weather Map New forecast layout! Learn more

10-Day Weather Forecast

Advertisements
Track Severe Weather on mobile